createdAt,value
2023-02-19T00:00:24.935Z,85.27
2023-02-19T00:02:56.936Z,86.74
2023-02-19T00:05:25.099Z,84.09
2023-02-19T00:07:59.493Z,84.86
2023-02-19T00:10:27.775Z,85.58
2023-02-19T00:13:04.716Z,86.39
2023-02-19T00:15:34.988Z,85.81
2023-02-19T00:18:05.164Z,87.69
2023-02-19T00:20:35.918Z,86.95
2023-02-19T00:23:12.568Z,88.13
2023-02-19T00:25:48.297Z,85.37
2023-02-19T00:28:19.111Z,87.30
2023-02-19T00:30:49.201Z,88.00
2023-02-19T00:33:17.366Z,87.07
2023-02-19T00:35:47.690Z,87.79
2023-02-19T00:38:15.578Z,88.88
2023-02-19T00:40:46.154Z,88.87
2023-02-19T00:43:16.798Z,85.78
2023-02-19T00:45:44.661Z,84.93
2023-02-19T00:48:16.882Z,86.48
2023-02-19T00:50:45.011Z,84.37
2023-02-19T00:53:15.219Z,86.47
2023-02-19T00:55:44.787Z,86.22
2023-02-19T00:58:12.639Z,88.11
2023-02-19T01:00:41.015Z,90.57
2023-02-19T01:03:11.355Z,90.09
2023-02-19T01:05:42.329Z,90.63
2023-02-19T01:08:15.364Z,89.84
2023-02-19T01:10:43.231Z,91.32
2023-02-19T01:13:13.035Z,91.35
2023-02-19T01:15:42.375Z,91.02
2023-02-19T01:18:10.582Z,92.16
2023-02-19T01:20:47.139Z,91.30
2023-02-19T01:23:18.079Z,90.88
2023-02-19T01:25:48.783Z,91.23
2023-02-19T01:28:16.617Z,90.61
2023-02-19T01:30:44.514Z,90.54
2023-02-19T01:33:12.484Z,92.15
2023-02-19T01:35:44.679Z,92.94
2023-02-19T01:38:13.716Z,93.17
2023-02-19T01:40:41.479Z,91.72
2023-02-19T01:43:16.224Z,91.25
2023-02-19T01:45:44.945Z,91.51
2023-02-19T01:48:14.978Z,90.52
2023-02-19T01:50:51.483Z,90.50
2023-02-19T01:53:26.196Z,91.58
2023-02-19T01:55:59.504Z,90.60
2023-02-19T01:58:32.558Z,92.89
2023-02-19T02:01:01.137Z,92.94
2023-02-19T02:03:30.027Z,93.28
2023-02-19T02:06:05.632Z,92.76
2023-02-19T02:08:53.972Z,92.21
2023-02-19T02:11:30.973Z,91.87
2023-02-19T02:13:59.613Z,89.96
2023-02-19T02:16:31.825Z,88.11
2023-02-19T02:19:03.773Z,87.98
2023-02-19T02:21:48.007Z,90.29
2023-02-19T02:24:35.209Z,89.26
2023-02-19T02:27:21.907Z,90.14
2023-02-19T02:30:09.149Z,90.50
2023-02-19T02:32:38.218Z,90.09
2023-02-19T02:35:10.833Z,91.26
2023-02-19T02:37:42.698Z,90.62
2023-02-19T02:40:12.198Z,90.66
2023-02-19T02:42:41.161Z,89.37
2023-02-19T02:45:36.723Z,90.60
2023-02-19T02:48:31.259Z,91.05
2023-02-19T02:51:03.524Z,89.47
2023-02-19T02:53:54.026Z,89.73
2023-02-19T02:56:25.885Z,90.67
2023-02-19T02:58:58.557Z,89.39
2023-02-19T03:01:48.262Z,86.79
2023-02-19T03:04:22.276Z,86.16
2023-02-19T03:06:59.883Z,88.86
2023-02-19T03:09:31.824Z,87.80
2023-02-19T03:12:24.569Z,87.20
2023-02-19T03:15:13.173Z,84.26
2023-02-19T03:18:02.223Z,85.71
2023-02-19T03:20:31.748Z,86.15
2023-02-19T03:23:01.626Z,86.12
2023-02-19T03:25:50.077Z,83.75
2023-02-19T03:28:19.376Z,84.62
2023-02-19T03:30:52.362Z,85.00
2023-02-19T03:33:25.380Z,84.59
2023-02-19T03:35:57.325Z,87.28
2023-02-19T03:38:30.894Z,87.73
2023-02-19T03:41:03.980Z,90.05
2023-02-19T03:43:36.581Z,91.54
2023-02-19T03:46:09.626Z,92.23
2023-02-19T03:48:41.869Z,91.57
2023-02-19T03:51:17.835Z,90.17
2023-02-19T03:53:53.066Z,88.85
2023-02-19T03:56:26.422Z,91.75
2023-02-19T03:59:01.157Z,90.90
2023-02-19T04:01:32.078Z,91.93
2023-02-19T04:04:06.181Z,89.72
2023-02-19T04:06:34.709Z,89.61
2023-02-19T04:09:07.979Z,87.94
2023-02-19T04:11:36.546Z,91.60
2023-02-19T04:14:08.477Z,91.46
2023-02-19T04:16:39.550Z,90.79
2023-02-19T04:19:11.695Z,90.78
2023-02-19T04:21:40.838Z,90.37
2023-02-19T04:24:12.686Z,87.86
2023-02-19T04:26:41.298Z,88.83
2023-02-19T04:29:09.133Z,89.47
2023-02-19T04:31:39.387Z,91.03
2023-02-19T04:34:07.311Z,90.00
2023-02-19T04:36:38.404Z,91.19
2023-02-19T04:39:11.146Z,91.68
2023-02-19T04:41:38.988Z,89.04
2023-02-19T04:44:07.163Z,90.20
2023-02-19T04:46:36.200Z,90.59
2023-02-19T04:49:06.961Z,89.60
2023-02-19T04:51:36.234Z,89.57
2023-02-19T04:54:10.002Z,90.04
2023-02-19T04:56:42.161Z,89.84
2023-02-19T04:59:11.258Z,88.06
2023-02-19T05:01:39.026Z,88.26
2023-02-19T05:04:06.914Z,88.21
2023-02-19T05:06:36.095Z,86.66
2023-02-19T05:09:06.096Z,88.41
2023-02-19T05:11:36.215Z,86.30
2023-02-19T05:14:12.459Z,87.92
2023-02-19T05:16:40.739Z,88.21
2023-02-19T05:19:08.916Z,88.28
2023-02-19T05:21:39.313Z,88.21
2023-02-19T05:24:09.067Z,88.12
2023-02-19T05:26:39.946Z,88.16
2023-02-19T05:29:12.278Z,87.60
2023-02-19T05:31:40.284Z,91.41
2023-02-19T05:34:08.262Z,90.26
2023-02-19T05:36:37.224Z,89.98
2023-02-19T05:39:07.622Z,90.60
2023-02-19T05:41:41.666Z,90.16
2023-02-19T05:44:11.126Z,89.53
2023-02-19T05:46:39.041Z,90.04
2023-02-19T05:49:07.274Z,90.89
2023-02-19T05:51:36.772Z,91.87
2023-02-19T05:54:06.965Z,89.41
2023-02-19T05:56:36.111Z,91.18
2023-02-19T05:59:10.124Z,92.04
2023-02-19T06:01:39.974Z,92.29
2023-02-19T06:04:07.945Z,90.72
2023-02-19T06:06:37.778Z,91.36
2023-02-19T06:09:10.914Z,90.69
2023-02-19T06:11:39.192Z,90.06
2023-02-19T06:14:08.411Z,89.82
2023-02-19T06:16:36.504Z,88.57
2023-02-19T06:19:07.533Z,88.55
2023-02-19T06:21:35.490Z,88.99
2023-02-19T06:24:07.660Z,88.86
2023-02-19T06:26:35.554Z,88.25
2023-02-19T06:29:03.504Z,88.60
2023-02-19T06:31:31.415Z,88.09
2023-02-19T06:34:06.640Z,88.09
2023-02-19T06:36:38.440Z,86.91
2023-02-19T06:39:10.900Z,86.81
2023-02-19T06:41:40.400Z,86.80
2023-02-19T06:44:08.250Z,86.07
2023-02-19T06:46:41.334Z,86.55
2023-02-19T06:49:09.389Z,85.60
2023-02-19T06:51:37.238Z,85.27
2023-02-19T06:54:08.410Z,84.85
2023-02-19T06:56:38.406Z,85.21
2023-02-19T06:59:10.252Z,86.92
2023-02-19T07:01:38.695Z,87.33
2023-02-19T07:04:10.321Z,86.00
2023-02-19T07:06:39.060Z,85.49
2023-02-19T07:09:09.115Z,86.79
2023-02-19T07:11:40.221Z,85.97
2023-02-19T07:14:09.534Z,86.58
2023-02-19T07:16:40.432Z,85.41
2023-02-19T07:19:10.650Z,83.17
2023-02-19T07:21:42.294Z,84.93
2023-02-19T07:24:11.616Z,85.21
2023-02-19T07:26:39.522Z,84.73
2023-02-19T07:29:07.645Z,85.14
2023-02-19T07:31:35.529Z,86.06
2023-02-19T07:34:03.720Z,85.98
2023-02-19T07:36:34.224Z,85.68
2023-02-19T07:39:02.063Z,84.21
2023-02-19T07:41:31.209Z,83.30
2023-02-19T07:44:01.531Z,81.87
2023-02-19T07:46:32.186Z,81.16
2023-02-19T07:49:00.844Z,80.18
2023-02-19T07:51:38.019Z,78.66
2023-02-19T07:54:07.147Z,80.36
2023-02-19T07:56:36.993Z,77.75
2023-02-19T07:59:08.007Z,76.68
2023-02-19T08:01:55.694Z,77.85
2023-02-19T08:04:23.620Z,78.11
2023-02-19T08:06:51.450Z,79.34
2023-02-19T08:09:19.216Z,79.13
2023-02-19T08:12:06.248Z,79.99
2023-02-19T08:14:35.218Z,80.78
2023-02-19T08:17:03.305Z,80.64
2023-02-19T08:19:32.812Z,82.46
2023-02-19T08:22:00.567Z,82.92
2023-02-19T08:24:41.192Z,82.78
2023-02-19T08:27:10.397Z,82.29
2023-02-19T08:29:38.248Z,82.12
2023-02-19T08:32:13.400Z,81.98
2023-02-19T08:34:45.189Z,81.34
2023-02-19T08:37:14.852Z,81.18
2023-02-19T08:39:42.678Z,81.02
2023-02-19T08:42:11.968Z,80.90
2023-02-19T08:44:39.788Z,81.51
2023-02-19T08:47:10.340Z,80.15
2023-02-19T08:49:38.124Z,80.59
2023-02-19T08:52:08.050Z,81.20
2023-02-19T08:54:38.814Z,81.54
2023-02-19T08:57:07.864Z,80.14
2023-02-19T08:59:37.075Z,81.13
2023-02-19T09:02:07.796Z,81.33
2023-02-19T09:04:36.412Z,81.06
2023-02-19T09:07:10.988Z,80.55
2023-02-19T09:09:56.667Z,80.11
2023-02-19T09:12:30.144Z,79.50
2023-02-19T09:14:59.439Z,79.62
2023-02-19T09:17:30.585Z,78.86
2023-02-19T09:19:59.175Z,77.85
2023-02-19T09:22:27.073Z,77.71
2023-02-19T09:24:54.904Z,78.19
2023-02-19T09:27:23.215Z,76.63
2023-02-19T09:29:50.972Z,77.08
2023-02-19T09:32:20.150Z,74.83
2023-02-19T09:34:52.863Z,74.68
2023-02-19T09:37:23.097Z,75.14
2023-02-19T09:39:51.069Z,74.07
2023-02-19T09:42:27.633Z,74.38
2023-02-19T09:44:57.613Z,73.80
2023-02-19T09:47:28.274Z,74.37
2023-02-19T09:49:57.571Z,74.12
2023-02-19T09:52:30.481Z,74.81
2023-02-19T09:55:01.616Z,74.35
2023-02-19T09:57:34.375Z,74.39
2023-02-19T10:00:10.625Z,73.83
2023-02-19T10:02:40.752Z,74.22
2023-02-19T10:05:11.882Z,74.60
2023-02-19T10:07:50.948Z,73.87
2023-02-19T10:10:30.714Z,75.16
2023-02-19T10:13:04.474Z,74.98
2023-02-19T10:15:43.446Z,74.82
2023-02-19T10:18:17.308Z,75.93
2023-02-19T10:20:45.111Z,76.17
2023-02-19T10:23:15.170Z,76.53
2023-02-19T10:25:46.412Z,77.39
2023-02-19T10:28:16.763Z,75.94
2023-02-19T10:30:44.746Z,76.20
2023-02-19T10:33:16.154Z,76.75
2023-02-19T10:35:56.640Z,77.24
2023-02-19T10:38:29.460Z,76.31
2023-02-19T10:41:03.566Z,75.67
2023-02-19T10:43:34.118Z,74.99
2023-02-19T10:46:05.474Z,75.21
2023-02-19T10:48:37.881Z,75.11
2023-02-19T10:51:10.934Z,74.81
2023-02-19T10:53:44.468Z,74.40
2023-02-19T10:56:15.114Z,74.67
2023-02-19T10:58:47.370Z,75.40
2023-02-19T11:01:19.990Z,74.34
2023-02-19T11:03:51.395Z,73.63
2023-02-19T11:06:23.155Z,73.29
2023-02-19T11:08:53.972Z,74.71
2023-02-19T11:11:33.341Z,73.11
2023-02-19T11:14:08.349Z,71.83
2023-02-19T11:16:40.386Z,73.58
2023-02-19T11:19:23.643Z,73.85
2023-02-19T11:21:51.704Z,73.42
2023-02-19T11:24:31.558Z,73.65
2023-02-19T11:26:59.803Z,75.63
2023-02-19T11:29:34.779Z,76.27
2023-02-19T11:32:25.463Z,75.84
2023-02-19T11:35:17.840Z,76.45
2023-02-19T11:37:59.737Z,75.52
2023-02-19T11:40:41.840Z,74.82
2023-02-19T11:43:32.711Z,74.01
2023-02-19T11:46:07.130Z,74.25
2023-02-19T11:48:58.503Z,74.04
2023-02-19T11:51:52.684Z,74.47
2023-02-19T11:54:30.530Z,73.19
2023-02-19T11:57:06.073Z,72.88
2023-02-19T11:59:36.302Z,72.72
2023-02-19T12:02:29.122Z,72.93
2023-02-19T12:05:24.441Z,70.96
2023-02-19T12:08:27.659Z,72.84
2023-02-19T12:11:19.294Z,72.87
2023-02-19T12:14:19.290Z,73.41
2023-02-19T12:16:59.476Z,72.78
2023-02-19T12:19:45.658Z,71.25
2023-02-19T12:22:27.660Z,71.46
2023-02-19T12:25:28.694Z,71.20
2023-02-19T12:28:27.537Z,72.99
2023-02-19T12:31:09.887Z,73.30
2023-02-19T12:34:08.190Z,73.59
2023-02-19T12:36:50.923Z,71.43
2023-02-19T12:39:31.471Z,68.76
2023-02-19T12:42:05.799Z,69.47
2023-02-19T12:44:49.929Z,68.67
2023-02-19T12:47:23.651Z,68.63
2023-02-19T12:50:04.611Z,69.07
2023-02-19T12:52:36.795Z,69.74
2023-02-19T12:55:19.796Z,70.02
2023-02-19T12:57:48.183Z,70.38
2023-02-19T13:00:30.573Z,69.74
2023-02-19T13:03:01.946Z,69.58
2023-02-19T13:05:42.430Z,68.74
2023-02-19T13:08:17.617Z,70.44
2023-02-19T13:10:49.018Z,71.95
2023-02-19T13:13:23.889Z,71.83
2023-02-19T13:15:58.830Z,70.50
2023-02-19T13:18:30.194Z,71.72
2023-02-19T13:20:58.413Z,72.24
2023-02-19T13:23:48.950Z,72.51
2023-02-19T13:26:34.344Z,72.02
2023-02-19T13:29:11.053Z,70.50
2023-02-19T13:32:30.067Z,70.49
2023-02-19T13:35:13.368Z,70.26
2023-02-19T13:37:42.831Z,71.24
2023-02-19T13:40:22.201Z,71.53
2023-02-19T13:42:54.238Z,71.23
2023-02-19T13:45:24.495Z,70.39
2023-02-19T13:48:04.568Z,69.57
2023-02-19T13:50:35.202Z,70.31
2023-02-19T13:53:07.597Z,69.98
2023-02-19T13:55:57.227Z,69.88
2023-02-19T13:58:55.136Z,71.38
2023-02-19T14:01:56.131Z,71.61
2023-02-19T14:04:27.723Z,70.54
2023-02-19T14:07:37.391Z,69.97
2023-02-19T14:10:09.535Z,70.97
2023-02-19T14:12:38.372Z,70.76
2023-02-19T14:15:45.618Z,69.25
2023-02-19T14:18:58.183Z,69.49
2023-02-19T14:21:30.506Z,69.42
2023-02-19T14:24:01.308Z,67.71
2023-02-19T14:26:33.148Z,67.79
2023-02-19T14:29:01.875Z,67.55
2023-02-19T14:31:32.271Z,68.51
2023-02-19T14:34:03.433Z,68.01
2023-02-19T14:36:39.539Z,69.07
2023-02-19T14:39:16.746Z,68.81
2023-02-19T14:41:47.316Z,68.60
2023-02-19T14:44:23.732Z,67.46
2023-02-19T14:47:01.032Z,68.28
2023-02-19T14:49:31.887Z,67.87
2023-02-19T14:52:01.113Z,68.87
2023-02-19T14:54:46.085Z,68.78
2023-02-19T14:57:17.479Z,69.07
2023-02-19T15:00:00.752Z,68.06
2023-02-19T15:02:33.914Z,69.75
2023-02-19T15:05:01.865Z,70.20
2023-02-19T15:07:40.407Z,70.84
2023-02-19T15:10:16.269Z,70.96
2023-02-19T15:12:46.665Z,71.08
2023-02-19T15:15:22.302Z,70.93
2023-02-19T15:17:51.139Z,70.77
2023-02-19T15:20:20.905Z,71.08
2023-02-19T15:22:50.533Z,71.34
2023-02-19T15:25:22.220Z,71.14
2023-02-19T15:27:54.409Z,70.68
2023-02-19T15:30:25.194Z,72.13
2023-02-19T15:32:55.769Z,72.58
2023-02-19T15:35:25.258Z,71.20
2023-02-19T15:37:59.589Z,72.18
2023-02-19T15:40:32.535Z,72.49
2023-02-19T15:43:03.992Z,73.20
2023-02-19T15:45:43.190Z,71.09
2023-02-19T15:48:14.798Z,72.50
2023-02-19T15:50:47.605Z,71.85
2023-02-19T15:53:16.825Z,72.71
2023-02-19T15:55:48.057Z,72.89
2023-02-19T15:58:27.002Z,74.45
2023-02-19T16:01:00.656Z,73.05
2023-02-19T16:03:29.512Z,72.48
2023-02-19T16:06:01.817Z,72.95
2023-02-19T16:08:36.628Z,74.12
2023-02-19T16:11:08.826Z,73.96
2023-02-19T16:13:40.225Z,72.64
2023-02-19T16:16:16.162Z,72.90
2023-02-19T16:18:46.554Z,73.08
2023-02-19T16:21:19.305Z,73.90
2023-02-19T16:23:49.603Z,72.89
2023-02-19T16:26:21.413Z,74.75
2023-02-19T16:28:52.271Z,74.79
2023-02-19T16:31:21.707Z,74.20
2023-02-19T16:33:50.781Z,75.64
2023-02-19T16:36:41.781Z,76.28
2023-02-19T16:39:24.827Z,74.66
2023-02-19T16:42:36.798Z,73.84
2023-02-19T16:45:10.800Z,75.47
2023-02-19T16:47:48.154Z,75.46
2023-02-19T16:50:23.215Z,75.33
2023-02-19T16:52:57.893Z,74.72
2023-02-19T16:55:26.706Z,76.10
2023-02-19T16:57:56.371Z,76.33
2023-02-19T17:00:31.510Z,75.86
2023-02-19T17:03:02.233Z,74.79
2023-02-19T17:05:32.434Z,76.49
2023-02-19T17:08:00.323Z,75.79
2023-02-19T17:10:29.956Z,76.82
2023-02-19T17:12:59.660Z,75.72
2023-02-19T17:15:27.611Z,76.16
2023-02-19T17:17:58.874Z,76.40
2023-02-19T17:20:38.746Z,75.68
2023-02-19T17:23:15.058Z,75.14
2023-02-19T17:25:42.923Z,75.95
2023-02-19T17:28:12.166Z,76.17
2023-02-19T17:30:42.900Z,75.82
2023-02-19T17:33:10.779Z,76.88
2023-02-19T17:35:39.804Z,74.85
2023-02-19T17:38:12.161Z,75.31
2023-02-19T17:40:45.254Z,73.48
2023-02-19T17:43:14.748Z,74.49
2023-02-19T17:45:44.381Z,76.62
2023-02-19T17:48:17.059Z,74.97
2023-02-19T17:50:45.312Z,75.17
2023-02-19T17:53:16.158Z,75.26
2023-02-19T17:55:44.838Z,75.00
2023-02-19T17:58:14.999Z,76.14
2023-02-19T18:00:42.907Z,75.11
2023-02-19T18:03:11.775Z,73.95
2023-02-19T18:05:43.526Z,74.43
2023-02-19T18:08:11.895Z,74.26
2023-02-19T18:10:43.213Z,73.63
2023-02-19T18:13:11.197Z,74.62
2023-02-19T18:15:42.032Z,74.00
2023-02-19T18:18:12.645Z,75.08
2023-02-19T18:20:43.133Z,75.02
2023-02-19T18:23:13.487Z,75.84
2023-02-19T18:25:41.483Z,75.78
2023-02-19T18:28:14.953Z,75.35
2023-02-19T18:30:45.036Z,75.37
2023-02-19T18:33:13.379Z,76.26
2023-02-19T18:35:43.366Z,76.09
2023-02-19T18:38:13.639Z,76.47
2023-02-19T18:40:42.829Z,77.06
2023-02-19T18:43:16.935Z,76.23
2023-02-19T18:45:46.712Z,74.99
2023-02-19T18:48:14.757Z,76.38
2023-02-19T18:50:44.753Z,74.76
2023-02-19T18:53:21.838Z,76.18
2023-02-19T18:55:51.640Z,77.27
2023-02-19T18:58:19.893Z,76.64
2023-02-19T19:00:50.098Z,76.49
2023-02-19T19:03:18.111Z,75.31
2023-02-19T19:05:48.335Z,75.61
2023-02-19T19:08:16.155Z,74.33
2023-02-19T19:10:49.408Z,75.12
2023-02-19T19:13:17.240Z,72.93
2023-02-19T19:15:47.691Z,73.69
2023-02-19T19:18:18.378Z,73.72
2023-02-19T19:20:48.728Z,75.23
2023-02-19T19:23:16.569Z,75.52
2023-02-19T19:25:47.498Z,75.83
2023-02-19T19:28:16.569Z,75.08
2023-02-19T19:30:46.552Z,74.62
2023-02-19T19:33:17.702Z,74.84
2023-02-19T19:35:47.428Z,74.60
2023-02-19T19:38:15.219Z,74.55
2023-02-19T19:40:43.143Z,74.93
2023-02-19T19:43:21.588Z,75.82
2023-02-19T19:45:51.623Z,75.45
2023-02-19T19:48:22.410Z,75.05
2023-02-19T19:50:56.843Z,75.48
2023-02-19T19:53:24.802Z,74.25
2023-02-19T19:55:55.943Z,74.55
2023-02-19T19:58:27.241Z,72.81
2023-02-19T20:00:55.526Z,72.39
2023-02-19T20:03:25.593Z,74.42
2023-02-19T20:05:56.290Z,72.88
2023-02-19T20:08:24.850Z,73.77
2023-02-19T20:10:55.406Z,74.89
2023-02-19T20:13:27.350Z,73.73
2023-02-19T20:15:56.667Z,74.59
2023-02-19T20:18:28.616Z,72.26
2023-02-19T20:20:56.883Z,73.47
2023-02-19T20:23:26.603Z,72.35
2023-02-19T20:26:06.806Z,72.59
2023-02-19T20:28:35.160Z,73.86
2023-02-19T20:31:06.022Z,75.20
2023-02-19T20:33:35.234Z,74.89
2023-02-19T20:36:05.452Z,75.07
2023-02-19T20:38:33.338Z,73.54
2023-02-19T20:41:01.270Z,73.73
2023-02-19T20:43:31.648Z,74.42
2023-02-19T20:46:01.574Z,73.46
2023-02-19T20:48:35.596Z,73.49
2023-02-19T20:51:08.132Z,72.45
2023-02-19T20:53:36.942Z,73.64
2023-02-19T20:56:09.021Z,74.22
2023-02-19T20:58:36.975Z,73.63
2023-02-19T21:01:05.376Z,74.04
2023-02-19T21:03:33.170Z,73.54
2023-02-19T21:06:07.974Z,73.92
2023-02-19T21:08:43.202Z,72.87
2023-02-19T21:11:15.092Z,72.71
2023-02-19T21:13:46.296Z,74.72
2023-02-19T21:16:17.068Z,74.75
2023-02-19T21:18:45.571Z,74.94
2023-02-19T21:21:20.070Z,74.54
2023-02-19T21:23:50.622Z,73.48
2023-02-19T21:26:22.311Z,73.16
2023-02-19T21:28:51.896Z,74.66
2023-02-19T21:31:20.355Z,74.51
2023-02-19T21:33:50.636Z,74.31
2023-02-19T21:36:20.782Z,73.38
2023-02-19T21:38:48.757Z,74.33
2023-02-19T21:41:20.544Z,76.46
2023-02-19T21:43:49.585Z,76.52
2023-02-19T21:46:19.778Z,76.50
2023-02-19T21:48:48.910Z,76.40
2023-02-19T21:51:17.162Z,77.54
2023-02-19T21:53:47.377Z,77.61
2023-02-19T21:56:23.993Z,78.63
2023-02-19T21:58:53.080Z,76.48
2023-02-19T22:01:23.474Z,77.44
2023-02-19T22:03:51.471Z,76.98
2023-02-19T22:06:35.886Z,77.77
2023-02-19T22:09:05.577Z,77.18
2023-02-19T22:11:36.242Z,76.74
2023-02-19T22:14:04.069Z,77.62
2023-02-19T22:16:32.220Z,77.31
2023-02-19T22:19:00.703Z,77.03
2023-02-19T22:21:32.383Z,76.96
2023-02-19T22:24:01.457Z,78.41
2023-02-19T22:26:36.529Z,79.41
2023-02-19T22:29:09.754Z,79.63
2023-02-19T22:31:38.637Z,78.81
2023-02-19T22:34:09.293Z,78.29
2023-02-19T22:36:41.659Z,77.19
2023-02-19T22:39:16.786Z,78.00
2023-02-19T22:41:46.256Z,79.31
2023-02-19T22:44:14.548Z,79.23
2023-02-19T22:46:50.235Z,79.28
2023-02-19T22:49:18.917Z,78.13
2023-02-19T22:51:52.098Z,77.78
2023-02-19T22:54:24.932Z,77.93
2023-02-19T22:56:57.503Z,79.09
2023-02-19T22:59:28.464Z,77.56
2023-02-19T23:01:56.842Z,76.30
2023-02-19T23:04:26.082Z,76.86
2023-02-19T23:06:54.024Z,76.77
2023-02-19T23:09:24.643Z,76.00
2023-02-19T23:11:56.125Z,77.59
2023-02-19T23:14:28.917Z,76.60
2023-02-19T23:16:56.825Z,77.17
2023-02-19T23:19:26.666Z,75.26
2023-02-19T23:21:56.837Z,75.84
2023-02-19T23:24:26.192Z,76.56
2023-02-19T23:26:57.236Z,77.40
2023-02-19T23:29:26.731Z,75.26
2023-02-19T23:32:00.591Z,75.40
2023-02-19T23:34:37.303Z,75.27
2023-02-19T23:37:07.421Z,77.75
2023-02-19T23:39:35.501Z,75.41
2023-02-19T23:42:06.168Z,75.46
2023-02-19T23:44:35.256Z,77.08
2023-02-19T23:47:02.996Z,76.29
2023-02-19T23:49:35.801Z,75.63
2023-02-19T23:52:03.937Z,75.32
2023-02-19T23:54:32.012Z,75.28
2023-02-19T23:57:02.661Z,76.35
2023-02-19T23:59:31.835Z,77.15
